Time;durP1;ratioP1;P1;durP2;ratioP2;P2;SDS_P1;SDS_P2;PMS_P1;PMS_P2;Temp;Humidity;BMP_temperature;BMP_pressure;BME280_temperature;BME280_humidity;BME280_pressure;Samples;Min_cycle;Max_cycle;Signal;HPM_P1;HPM_P2
2022/05/02 00:01:54;;;;;;;;;;;11.70;93.50;;;;;;4962183;28;19960;-84
2022/05/02 00:04:22;;;;;;;;;;;11.70;93.50;;;;;;4958267;28;19949;-83
2022/05/02 00:06:51;;;;;;;;;;;11.60;93.60;;;;;;4942583;28;19941;-84
2022/05/02 00:09:19;;;;;;;;;;;11.60;93.50;;;;;;4956199;28;20339;-84
2022/05/02 00:11:46;;;;;;;;;;;11.60;93.60;;;;;;4958478;28;19926;-84
2022/05/02 00:14:14;;;;;;;;;;;11.60;93.70;;;;;;4971083;28;19931;-84
2022/05/02 00:16:42;;;;;;;;;;;11.60;93.70;;;;;;4954990;28;19930;-84
2022/05/02 00:19:12;;;;;;;;;;;11.60;93.80;;;;;;4951906;28;19935;-85
2022/05/02 00:21:39;;;;;;;;;;;11.60;93.70;;;;;;4953144;29;20513;-84
2022/05/02 00:24:08;;;;;;;;;;;11.50;93.70;;;;;;4951873;29;20298;-85
2022/05/02 00:26:36;;;;;;;;;;;11.50;93.80;;;;;;4954799;28;19933;-85
2022/05/02 00:29:03;;;;;;;;;;;11.50;93.90;;;;;;4952869;29;19949;-84
2022/05/02 00:31:31;;;;;;;;;;;11.50;93.70;;;;;;4935991;29;19930;-83
2022/05/02 00:33:59;;;;;;;;;;;11.40;94.10;;;;;;4953348;29;19934;-85
2022/05/02 00:36:26;;;;;;;;;;;11.40;94.00;;;;;;4936549;29;20390;-84
2022/05/02 00:38:54;;;;;;;;;;;11.40;94.10;;;;;;4952904;28;20429;-86
2022/05/02 00:41:22;;;;;;;;;;;12.50;94.50;;;;;;4962732;28;19930;-84
2022/05/02 00:43:49;;;;;;;;;;;11.40;94.20;;;;;;4956125;29;19927;-85
2022/05/02 00:46:21;;;;;;;;;;;11.40;94.30;;;;;;4946309;28;19950;-85
2022/05/02 00:48:50;;;;;;;;;;;11.40;94.20;;;;;;4956630;29;19949;-84
2022/05/02 00:51:18;;;;;;;;;;;11.40;94.20;;;;;;4957029;29;19942;-83
2022/05/02 00:53:48;;;;;;;;;;;11.40;94.30;;;;;;4956386;29;19933;-83
2022/05/02 00:56:16;;;;;;;;;;;11.40;94.40;;;;;;4967219;28;19937;-84
2022/05/02 00:58:44;;;;;;;;;;;11.50;94.50;;;;;;4958891;28;20368;-84
2022/05/02 01:01:11;;;;;;;;;;;11.40;94.50;;;;;;4975178;28;19938;-84
2022/05/02 01:03:39;;;;;;;;;;;11.40;94.50;;;;;;4958340;28;19926;-85
2022/05/02 01:08:55;;;;;;;;;;;11.40;94.70;;;;;;4977422;28;20278;-85
2022/05/02 01:11:24;;;;;;;;;;;11.30;94.70;;;;;;4958421;28;19930;-85
2022/05/02 01:13:54;;;;;;;;;;;11.30;94.60;;;;;;4958546;28;19926;-85
2022/05/02 01:16:23;;;;;;;;;;;11.30;94.70;;;;;;4962678;28;19927;-85
2022/05/02 01:18:52;;;;;;;;;;;11.30;94.70;;;;;;4936436;29;20314;-84
2022/05/02 01:21:22;;;;;;;;;;;11.30;94.70;;;;;;4904386;29;19931;-85
2022/05/02 01:23:50;;;;;;;;;;;11.30;94.70;;;;;;4904438;29;20303;-84
2022/05/02 01:26:18;;;;;;;;;;;11.30;94.70;;;;;;4932081;29;19930;-84
2022/05/02 01:28:53;;;;;;;;;;;11.30;94.90;;;;;;4955634;29;20418;-84
2022/05/02 01:31:21;;;;;;;;;;;11.30;94.80;;;;;;4247499;29;10000549;-85
2022/05/02 01:33:49;;;;;;;;;;;11.30;94.80;;;;;;4936100;29;19927;-85
2022/05/02 01:36:17;;;;;;;;;;;11.20;94.80;;;;;;4937667;29;20654;-85
2022/05/02 01:38:45;;;;;;;;;;;11.20;95.00;;;;;;4954477;29;19931;-85
2022/05/02 01:41:12;;;;;;;;;;;11.20;95.10;;;;;;4957379;28;19937;-84
2022/05/02 01:43:40;;;;;;;;;;;11.20;95.30;;;;;;4974287;28;19973;-85
2022/05/02 01:46:08;;;;;;;;;;;11.20;95.30;;;;;;4945093;29;20591;-84
2022/05/02 01:48:36;;;;;;;;;;;11.10;95.50;;;;;;4922904;29;19934;-84
2022/05/02 01:51:03;;;;;;;;;;;11.20;95.70;;;;;;4939028;29;19953;-84
2022/05/02 01:53:31;;;;;;;;;;;11.10;95.90;;;;;;4939415;29;19938;-85
2022/05/02 01:55:58;;;;;;;;;;;11.10;96.20;;;;;;4933259;29;19934;-85
2022/05/02 01:58:26;;;;;;;;;;;11.10;96.10;;;;;;4937916;29;19927;-85
2022/05/02 02:00:54;;;;;;;;;;;11.10;96.30;;;;;;4937912;29;19934;-85
2022/05/02 02:03:21;;;;;;;;;;;11.10;96.20;;;;;;4940622;29;19999;-83
2022/05/02 02:05:49;;;;;;;;;;;11.10;96.50;;;;;;4956717;29;19927;-84
2022/05/02 02:08:24;;;;;;;;;;;11.10;96.70;;;;;;4972314;28;19926;-83
2022/05/02 02:10:53;;;;;;;;;;;11.10;96.80;;;;;;4957352;28;19930;-84
2022/05/02 02:13:20;;;;;;;;;;;11.00;96.90;;;;;;4955624;28;19930;-86
2022/05/02 02:15:48;;;;;;;;;;;11.00;97.10;;;;;;4976652;28;19933;-84
2022/05/02 02:18:16;;;;;;;;;;;11.00;97.20;;;;;;4950023;29;20581;-84
2022/05/02 02:20:44;;;;;;;;;;;11.00;97.20;;;;;;4973370;28;19926;-84
2022/05/02 02:23:13;;;;;;;;;;;10.90;97.50;;;;;;4975902;28;20299;-84
2022/05/02 02:25:40;;;;;;;;;;;10.90;97.40;;;;;;4975934;28;19927;-85
2022/05/02 02:28:08;;;;;;;;;;;10.90;97.70;;;;;;4976740;28;19930;-84
2022/05/02 02:30:35;;;;;;;;;;;10.80;97.90;;;;;;4977047;28;19945;-84
2022/05/02 02:33:03;;;;;;;;;;;10.80;97.90;;;;;;4955218;28;19936;-84
2022/05/02 02:35:31;;;;;;;;;;;10.70;98.20;;;;;;4972173;28;19926;-83
2022/05/02 02:37:59;;;;;;;;;;;10.70;98.30;;;;;;4970735;28;19932;-85
2022/05/02 02:40:27;;;;;;;;;;;10.60;98.40;;;;;;4986150;28;19926;-84
2022/05/02 02:42:54;;;;;;;;;;;10.60;98.50;;;;;;4990894;28;19933;-85
2022/05/02 02:45:22;;;;;;;;;;;10.60;98.50;;;;;;4973883;28;19941;-84
2022/05/02 02:47:49;;;;;;;;;;;10.60;98.60;;;;;;4954789;28;19934;-84
2022/05/02 02:50:17;;;;;;;;;;;10.60;98.70;;;;;;4941038;28;20404;-85
2022/05/02 02:52:44;;;;;;;;;;;10.60;98.80;;;;;;4955645;28;19935;-84
2022/05/02 02:55:11;;;;;;;;;;;10.60;98.70;;;;;;4955619;28;19930;-84
2022/05/02 02:57:39;;;;;;;;;;;10.60;98.80;;;;;;4956183;28;19926;-84
2022/05/02 03:00:07;;;;;;;;;;;10.60;98.90;;;;;;4958203;28;20378;-84
2022/05/02 03:02:38;;;;;;;;;;;10.70;99.00;;;;;;4957474;28;19933;-84
2022/05/02 03:07:52;;;;;;;;;;;10.50;99.30;;;;;;4991133;28;19937;-85
2022/05/02 03:10:20;;;;;;;;;;;10.50;99.20;;;;;;4973631;28;19927;-84
2022/05/02 03:12:47;;;;;;;;;;;10.50;99.00;;;;;;4971628;28;20302;-85
2022/05/02 03:15:15;;;;;;;;;;;10.50;99.10;;;;;;4971454;28;19926;-85
2022/05/02 03:17:42;;;;;;;;;;;10.50;99.30;;;;;;4953551;28;19930;-86
2022/05/02 03:20:10;;;;;;;;;;;10.50;99.30;;;;;;4954381;28;20409;-86
2022/05/02 03:22:37;;;;;;;;;;;10.50;99.30;;;;;;4954267;28;19926;-86
2022/05/02 03:25:05;;;;;;;;;;;10.50;99.20;;;;;;4970993;28;19937;-84
2022/05/02 03:27:33;;;;;;;;;;;10.50;99.30;;;;;;4970803;28;19930;-86
2022/05/02 03:30:00;;;;;;;;;;;10.50;99.20;;;;;;4971645;28;19937;-85
2022/05/02 03:32:28;;;;;;;;;;;10.50;99.30;;;;;;4609482;28;9999832;-86
2022/05/02 03:34:55;;;;;;;;;;;10.40;99.40;;;;;;4935682;28;19922;-85
2022/05/02 03:37:22;;;;;;;;;;;10.40;99.40;;;;;;4950472;29;19937;-84
2022/05/02 03:39:50;;;;;;;;;;;10.40;99.50;;;;;;4934505;29;19927;-86
2022/05/02 03:42:17;;;;;;;;;;;10.40;99.40;;;;;;4975960;28;20317;-85
2022/05/02 03:44:45;;;;;;;;;;;10.40;99.50;;;;;;4973214;28;19926;-85
2022/05/02 03:47:13;;;;;;;;;;;10.40;99.60;;;;;;4956014;28;19930;-85
2022/05/02 03:49:40;;;;;;;;;;;10.40;99.60;;;;;;4952907;28;20378;-86
2022/05/02 03:52:08;;;;;;;;;;;10.40;99.60;;;;;;4960456;28;19931;-86
2022/05/02 03:54:35;;;;;;;;;;;10.40;99.70;;;;;;4934186;28;19938;-85
2022/05/02 03:57:03;;;;;;;;;;;10.40;99.80;;;;;;4969483;28;19926;-85
2022/05/02 03:59:31;;;;;;;;;;;10.30;99.80;;;;;;4953419;28;19933;-84
2022/05/02 04:01:58;;;;;;;;;;;10.30;99.60;;;;;;4971043;28;19937;-85
2022/05/02 04:04:26;;;;;;;;;;;10.30;99.80;;;;;;4943897;29;19927;-85
2022/05/02 04:06:53;;;;;;;;;;;10.30;99.70;;;;;;4952819;28;19930;-84
2022/05/02 04:09:20;;;;;;;;;;;10.20;99.60;;;;;;4934691;29;19926;-88
2022/05/02 04:11:48;;;;;;;;;;;10.30;99.70;;;;;;4940720;28;19930;-85
2022/05/02 04:14:15;;;;;;;;;;;10.30;99.70;;;;;;4952022;28;20464;-86
2022/05/02 04:16:43;;;;;;;;;;;10.40;99.80;;;;;;4957086;28;20007;-84
2022/05/02 04:19:11;;;;;;;;;;;10.60;99.90;;;;;;4973158;28;19937;-85
2022/05/02 04:21:38;;;;;;;;;;;10.40;99.60;;;;;;4953854;28;19930;-86
2022/05/02 04:24:06;;;;;;;;;;;10.40;99.60;;;;;;4956209;28;19930;-86
2022/05/02 04:26:34;;;;;;;;;;;10.40;99.60;;;;;;4972405;28;19945;-85
2022/05/02 04:29:02;;;;;;;;;;;10.40;99.60;;;;;;4957699;28;20536;-87
2022/05/02 04:31:29;;;;;;;;;;;10.40;99.60;;;;;;4956861;28;20563;-85
2022/05/02 04:33:57;;;;;;;;;;;10.40;99.70;;;;;;4956654;28;19933;-86
2022/05/02 04:36:24;;;;;;;;;;;10.50;99.70;;;;;;4974395;28;19926;-86
2022/05/02 04:38:51;;;;;;;;;;;10.50;99.80;;;;;;4974481;28;20381;-86
2022/05/02 04:41:19;;;;;;;;;;;10.50;99.80;;;;;;4978158;28;19926;-85
2022/05/02 04:43:51;;;;;;;;;;;10.70;99.80;;;;;;4993546;28;19930;-84
2022/05/02 04:46:19;;;;;;;;;;;10.50;99.80;;;;;;4966491;28;19934;-85
2022/05/02 04:48:46;;;;;;;;;;;10.50;99.70;;;;;;4956098;28;19927;-87
2022/05/02 04:51:14;;;;;;;;;;;10.60;99.70;;;;;;4955065;28;19934;-85
2022/05/02 04:53:42;;;;;;;;;;;10.60;99.70;;;;;;4954690;28;19933;-85
2022/05/02 04:56:09;;;;;;;;;;;10.60;99.80;;;;;;4954855;28;19926;-84
2022/05/02 04:58:36;;;;;;;;;;;10.60;99.70;;;;;;4972340;28;19926;-85
2022/05/02 05:01:05;;;;;;;;;;;10.60;99.80;;;;;;4954368;28;19946;-86
2022/05/02 05:03:33;;;;;;;;;;;10.70;99.80;;;;;;4938645;28;19926;-86
2022/05/02 05:06:00;;;;;;;;;;;10.70;99.60;;;;;;4954738;28;19933;-85
2022/05/02 05:08:28;;;;;;;;;;;10.70;99.70;;;;;;4963200;28;19930;-84
2022/05/02 05:11:12;;;;;;;;;;;10.80;99.70;;;;;;4954801;28;20444;-85
2022/05/02 05:13:44;;;;;;;;;;;10.80;99.70;;;;;;4954641;28;19994;-85
2022/05/02 05:16:21;;;;;;;;;;;10.90;99.70;;;;;;4963568;28;19926;-85
2022/05/02 05:18:56;;;;;;;;;;;10.90;99.60;;;;;;4965694;28;19930;-86
2022/05/02 05:21:30;;;;;;;;;;;10.90;99.60;;;;;;4967811;28;19937;-85
2022/05/02 05:24:16;;;;;;;;;;;10.90;99.60;;;;;;4975960;28;19926;-83
2022/05/02 05:26:53;;;;;;;;;;;11.00;99.90;;;;;;4961200;28;19937;-85
2022/05/02 05:29:24;;;;;;;;;;;11.00;99.40;;;;;;4939473;28;19926;-86
2022/05/02 05:31:57;;;;;;;;;;;11.00;99.40;;;;;;4954575;28;19926;-85
2022/05/02 05:34:27;;;;;;;;;;;11.10;99.50;;;;;;4971676;28;19930;-85
2022/05/02 05:37:11;;;;;;;;;;;11.10;99.50;;;;;;4955181;28;19927;-85
2022/05/02 05:39:38;;;;;;;;;;;11.10;99.60;;;;;;4971341;28;19930;-85
2022/05/02 05:42:17;;;;;;;;;;;11.10;99.50;;;;;;4944605;29;19934;-83
2022/05/02 05:44:51;;;;;;;;;;;11.20;99.50;;;;;;4952092;29;19926;-85
2022/05/02 05:47:42;;;;;;;;;;;10.20;99.20;;;;;;4972333;28;19930;-85
2022/05/02 05:50:23;;;;;;;;;;;11.20;99.50;;;;;;4987080;28;20007;-84
2022/05/02 05:53:00;;;;;;;;;;;11.20;99.50;;;;;;4973611;28;19933;-84
2022/05/02 05:55:34;;;;;;;;;;;10.90;99.40;;;;;;4945432;29;20078;-84
2022/05/02 05:58:06;;;;;;;;;;;11.20;99.70;;;;;;4937586;29;19930;-86
2022/05/02 06:00:36;;;;;;;;;;;11.20;99.50;;;;;;4958066;29;19937;-83
2022/05/02 06:03:12;;;;;;;;;;;11.20;99.50;;;;;;4959670;29;19931;-83
2022/05/02 06:05:41;;;;;;;;;;;11.30;99.50;;;;;;4963157;28;19926;-83
2022/05/02 06:08:10;;;;;;;;;;;11.30;99.70;;;;;;4971898;28;19938;-83
2022/05/02 06:10:39;;;;;;;;;;;11.30;99.60;;;;;;4943810;29;19927;-84
2022/05/02 06:13:08;;;;;;;;;;;11.30;99.50;;;;;;4992498;28;19929;-85
2022/05/02 06:18:27;;;;;;;;;;;11.30;99.60;;;;;;4974272;28;19930;-83
2022/05/02 06:21:05;;;;;;;;;;;11.40;99.50;;;;;;4942988;29;19927;-84
2022/05/02 06:23:39;;;;;;;;;;;11.40;99.40;;;;;;4621394;28;10000003;-84
2022/05/02 06:26:09;;;;;;;;;;;11.40;99.40;;;;;;4971812;28;19926;-84
2022/05/02 06:28:40;;;;;;;;;;;11.40;99.40;;;;;;4970726;28;19926;-83
2022/05/02 06:31:14;;;;;;;;;;;11.50;99.60;;;;;;4934188;29;20310;-84
2022/05/02 06:33:49;;;;;;;;;;;11.50;99.40;;;;;;4953254;28;20302;-84
2022/05/02 06:36:17;;;;;;;;;;;11.50;99.50;;;;;;4967073;28;19926;-83
2022/05/02 06:38:57;;;;;;;;;;;11.50;99.40;;;;;;4970905;28;19966;-84
2022/05/02 06:41:40;;;;;;;;;;;11.60;99.40;;;;;;4953926;28;19945;-85
2022/05/02 06:44:27;;;;;;;;;;;11.60;99.30;;;;;;4968401;28;19937;-83
2022/05/02 06:47:07;;;;;;;;;;;11.60;99.20;;;;;;4943020;28;20351;-83
2022/05/02 06:49:41;;;;;;;;;;;11.70;99.00;;;;;;4958102;28;20330;-84
2022/05/02 06:52:10;;;;;;;;;;;11.80;99.20;;;;;;4960563;28;20325;-84
2022/05/02 06:54:58;;;;;;;;;;;11.80;99.20;;;;;;4941790;29;19926;-84
2022/05/02 06:57:37;;;;;;;;;;;11.80;99.00;;;;;;4929052;28;19941;-86
2022/05/02 07:00:10;;;;;;;;;;;11.90;98.80;;;;;;4949710;28;19941;-85
2022/05/02 07:03:06;;;;;;;;;;;11.90;98.70;;;;;;4962514;28;19926;-85
2022/05/02 07:05:42;;;;;;;;;;;11.90;98.80;;;;;;4968599;28;19926;-86
2022/05/02 07:08:09;;;;;;;;;;;12.00;98.80;;;;;;4953641;28;19926;-85
2022/05/02 07:10:38;;;;;;;;;;;12.00;98.40;;;;;;4966637;28;19935;-85
2022/05/02 07:13:13;;;;;;;;;;;12.00;97.80;;;;;;4949435;28;20416;-85
2022/05/02 07:15:43;;;;;;;;;;;12.10;97.90;;;;;;4969679;28;19926;-84
2022/05/02 07:18:31;;;;;;;;;;;12.20;97.40;;;;;;4949361;28;19933;-85
2022/05/02 07:21:17;;;;;;;;;;;12.20;97.40;;;;;;4957912;29;19926;-85
2022/05/02 07:24:02;;;;;;;;;;;12.30;97.20;;;;;;4941293;28;19926;-84
2022/05/02 07:26:33;;;;;;;;;;;12.40;96.80;;;;;;4973863;28;20311;-84
2022/05/02 07:29:03;;;;;;;;;;;12.50;96.80;;;;;;4932013;28;19937;-85
2022/05/02 07:31:31;;;;;;;;;;;12.60;96.70;;;;;;4952909;28;19926;-83
2022/05/02 07:34:01;;;;;;;;;;;12.70;96.60;;;;;;4964368;28;19998;-85
2022/05/02 07:36:28;;;;;;;;;;;13.00;96.50;;;;;;4963801;28;19930;-85
2022/05/02 07:39:03;;;;;;;;;;;12.80;96.50;;;;;;4949158;29;19934;-84
2022/05/02 07:41:31;;;;;;;;;;;12.90;96.40;;;;;;4972788;28;20567;-84
2022/05/02 07:44:03;;;;;;;;;;;12.90;96.30;;;;;;4980507;28;20101;-84
2022/05/02 07:46:31;;;;;;;;;;;12.90;96.20;;;;;;4967362;28;19926;-84
2022/05/02 07:49:00;;;;;;;;;;;13.00;96.20;;;;;;4984498;28;19930;-84
2022/05/02 07:51:27;;;;;;;;;;;13.00;96.30;;;;;;4984848;28;19926;-84
2022/05/02 07:53:56;;;;;;;;;;;13.10;96.20;;;;;;4967184;28;20512;-84
2022/05/02 07:56:26;;;;;;;;;;;13.20;95.90;;;;;;4955686;28;19930;-84
2022/05/02 07:58:55;;;;;;;;;;;13.30;95.60;;;;;;4971114;28;19933;-84
2022/05/02 08:01:23;;;;;;;;;;;13.30;95.50;;;;;;4959523;28;19934;-85
2022/05/02 08:03:52;;;;;;;;;;;13.40;95.40;;;;;;4977122;28;19926;-83
2022/05/02 08:06:38;;;;;;;;;;;13.10;95.60;;;;;;4953200;28;19930;-84
2022/05/02 08:09:25;;;;;;;;;;;13.50;95.50;;;;;;4976851;28;19934;-86
2022/05/02 08:12:10;;;;;;;;;;;13.60;95.10;;;;;;4967130;28;19932;-85
2022/05/02 08:14:38;;;;;;;;;;;13.60;95.40;;;;;;4978243;28;20379;-85
2022/05/02 08:17:33;;;;;;;;;;;13.70;95.20;;;;;;4960370;28;19938;-84
2022/05/02 08:20:20;;;;;;;;;;;12.80;94.80;;;;;;4972084;28;19927;-85
2022/05/02 08:28:54;;;;;;;;;;;14.00;94.60;;;;;;4955186;28;19941;-85
2022/05/02 08:31:38;;;;;;;;;;;14.10;94.30;;;;;;4967620;28;19929;-85
2022/05/02 08:34:33;;;;;;;;;;;14.20;94.10;;;;;;4965285;28;19927;-85
2022/05/02 08:37:07;;;;;;;;;;;14.30;94.30;;;;;;4943501;28;19934;-83
2022/05/02 08:39:48;;;;;;;;;;;14.00;94.10;;;;;;4940573;28;19926;-85
2022/05/02 08:42:16;;;;;;;;;;;14.40;93.50;;;;;;4961091;28;19940;-86
2022/05/02 08:44:44;;;;;;;;;;;14.70;93.20;;;;;;4953804;28;19934;-84
2022/05/02 08:47:42;;;;;;;;;;;14.80;93.10;;;;;;4952562;28;19926;-85
2022/05/02 08:50:29;;;;;;;;;;;14.90;92.50;;;;;;4940046;28;19945;-85
2022/05/02 08:52:57;;;;;;;;;;;15.10;92.60;;;;;;4953675;28;19933;-84
2022/05/02 08:55:43;;;;;;;;;;;15.30;92.00;;;;;;4946054;28;20271;-86
2022/05/02 08:58:14;;;;;;;;;;;15.40;92.50;;;;;;4948589;28;19926;-85
2022/05/02 09:01:00;;;;;;;;;;;15.50;92.20;;;;;;4968211;28;19934;-84
2022/05/02 09:04:04;;;;;;;;;;;15.50;92.00;;;;;;4967991;28;19937;-84
2022/05/02 09:06:38;;;;;;;;;;;15.70;91.90;;;;;;4855421;29;19942;-84
2022/05/02 09:09:24;;;;;;;;;;;15.70;92.00;;;;;;4937624;28;19934;-84
2022/05/02 09:11:52;;;;;;;;;;;15.80;91.90;;;;;;4969345;28;19937;-86
2022/05/02 09:14:36;;;;;;;;;;;15.90;92.30;;;;;;4974543;28;20314;-84
2022/05/02 09:17:23;;;;;;;;;;;16.00;92.00;;;;;;4968025;28;19930;-86
2022/05/02 09:19:50;;;;;;;;;;;16.00;91.70;;;;;;4951596;28;19926;-86
2022/05/02 09:22:35;;;;;;;;;;;15.30;91.60;;;;;;4948441;28;19926;-85
2022/05/02 09:25:07;;;;;;;;;;;16.10;91.50;;;;;;4967436;28;19922;-84
2022/05/02 09:27:50;;;;;;;;;;;15.60;91.30;;;;;;4966894;28;19934;-85
2022/05/02 09:30:29;;;;;;;;;;;16.00;91.40;;;;;;4965130;28;19934;-86
2022/05/02 09:33:00;;;;;;;;;;;16.00;91.50;;;;;;4968578;28;19937;-86
2022/05/02 09:35:38;;;;;;;;;;;16.00;91.40;;;;;;4964451;28;19926;-86
2022/05/02 09:38:24;;;;;;;;;;;16.10;90.90;;;;;;4947005;28;20395;-85
2022/05/02 09:41:11;;;;;;;;;;;16.10;91.40;;;;;;4949790;28;20309;-86
2022/05/02 09:49:54;;;;;;;;;;;16.30;91.00;;;;;;4960973;28;19934;-86
2022/05/02 09:52:40;;;;;;;;;;;16.30;90.70;;;;;;4948623;28;19933;-84
2022/05/02 09:58:05;;;;;;;;;;;16.40;90.70;;;;;;4965485;28;19930;-85
2022/05/02 10:03:32;;;;;;;;;;;16.50;90.70;;;;;;4967362;28;19933;-85
2022/05/02 10:06:04;;;;;;;;;;;16.60;90.30;;;;;;4931520;28;19926;-88
2022/05/02 10:08:36;;;;;;;;;;;16.50;90.60;;;;;;4964654;28;19930;-86
2022/05/02 10:11:10;;;;;;;;;;;16.60;90.50;;;;;;4938102;28;19934;-86
2022/05/02 10:13:56;;;;;;;;;;;16.70;90.50;;;;;;4975508;28;19934;-87
2022/05/02 10:16:39;;;;;;;;;;;16.80;89.00;;;;;;4950819;28;19930;-85
2022/05/02 10:19:10;;;;;;;;;;;16.90;90.20;;;;;;4965172;28;20251;-86
2022/05/02 10:21:37;;;;;;;;;;;16.90;90.20;;;;;;4965193;28;19926;-86
2022/05/02 10:24:21;;;;;;;;;;;16.90;90.30;;;;;;4967147;28;19930;-88
2022/05/02 10:27:10;;;;;;;;;;;16.90;90.10;;;;;;4949307;28;19926;-86
2022/05/02 10:29:56;;;;;;;;;;;17.00;90.10;;;;;;4926442;28;19941;-87
2022/05/02 10:32:36;;;;;;;;;;;17.00;90.30;;;;;;4948589;28;20295;-85
2022/05/02 10:35:03;;;;;;;;;;;17.10;89.20;;;;;;4929599;28;20290;-85
2022/05/02 10:37:34;;;;;;;;;;;17.10;90.10;;;;;;4964505;28;20293;-84
2022/05/02 10:40:08;;;;;;;;;;;17.10;88.80;;;;;;4948181;28;20541;-86
2022/05/02 10:42:36;;;;;;;;;;;17.10;89.50;;;;;;4929795;28;19926;-87
2022/05/02 10:45:07;;;;;;;;;;;17.10;89.30;;;;;;4930136;28;19930;-86
2022/05/02 10:47:47;;;;;;;;;;;17.10;89.60;;;;;;4945894;28;19938;-85
2022/05/02 10:50:47;;;;;;;;;;;17.10;89.40;;;;;;4946414;28;19926;-87
2022/05/02 10:53:34;;;;;;;;;;;17.20;89.40;;;;;;4926391;28;19945;-91
2022/05/02 10:56:01;;;;;;;;;;;17.10;88.00;;;;;;4965245;28;19941;-86
2022/05/02 10:58:31;;;;;;;;;;;17.20;88.70;;;;;;4950197;28;19934;-87
2022/05/02 11:01:02;;;;;;;;;;;17.20;88.70;;;;;;4972215;28;19930;-85
2022/05/02 11:03:46;;;;;;;;;;;17.20;89.20;;;;;;4941161;28;19926;-86
2022/05/02 11:06:20;;;;;;;;;;;17.30;89.00;;;;;;4975699;28;19941;-86
2022/05/02 11:08:53;;;;;;;;;;;17.20;88.60;;;;;;4942129;28;19934;-87
2022/05/02 11:11:42;;;;;;;;;;;17.20;88.90;;;;;;4969140;28;20379;-87
2022/05/02 11:14:10;;;;;;;;;;;17.10;88.70;;;;;;4953019;28;19944;-86
2022/05/02 11:16:37;;;;;;;;;;;17.10;88.50;;;;;;4619697;28;10000202;-88
2022/05/02 11:22:23;;;;;;;;;;;17.10;87.90;;;;;;4948432;28;19945;-88
2022/05/02 11:25:06;;;;;;;;;;;17.20;87.90;;;;;;4947566;28;19927;-87
2022/05/02 11:27:39;;;;;;;;;;;17.30;88.40;;;;;;4950363;28;19930;-87
2022/05/02 11:30:07;;;;;;;;;;;17.30;88.00;;;;;;4929223;28;19938;-88
2022/05/02 11:32:44;;;;;;;;;;;17.30;88.00;;;;;;4947171;28;19926;-88
2022/05/02 11:35:14;;;;;;;;;;;17.40;88.20;;;;;;4957384;28;19934;-89
2022/05/02 11:37:46;;;;;;;;;;;17.50;87.40;;;;;;4966223;28;19938;-88
2022/05/02 11:40:15;;;;;;;;;;;17.50;87.60;;;;;;4964485;28;19930;-89
2022/05/02 11:42:45;;;;;;;;;;;17.50;87.50;;;;;;4930883;28;19926;-89
2022/05/02 11:45:17;;;;;;;;;;;17.50;87.60;;;;;;4947960;28;19926;-87
2022/05/02 11:48:00;;;;;;;;;;;17.60;87.60;;;;;;4964382;28;19930;-88
2022/05/02 11:50:28;;;;;;;;;;;17.60;87.70;;;;;;4949929;28;19945;-85
2022/05/02 11:53:00;;;;;;;;;;;17.60;87.10;;;;;;4947452;28;19941;-88
2022/05/02 11:55:29;;;;;;;;;;;17.50;87.40;;;;;;4963608;28;19930;-88
2022/05/02 11:58:09;;;;;;;;;;;17.90;87.40;;;;;;4966039;28;20156;-89
2022/05/02 12:00:39;;;;;;;;;;;17.50;87.10;;;;;;4946111;28;20317;-88
2022/05/02 12:03:15;;;;;;;;;;;17.40;87.40;;;;;;4933904;28;19934;-88
2022/05/02 12:05:48;;;;;;;;;;;17.40;87.70;;;;;;4963423;28;19933;-88
2022/05/02 12:08:34;;;;;;;;;;;17.40;87.30;;;;;;4949546;28;19934;-87
2022/05/02 12:11:11;;;;;;;;;;;17.30;87.00;;;;;;4917486;28;19930;-88
2022/05/02 12:13:40;;;;;;;;;;;17.30;87.20;;;;;;4963398;28;19926;-88
2022/05/02 12:16:09;;;;;;;;;;;17.60;87.70;;;;;;4963902;28;20783;-89
2022/05/02 12:18:43;;;;;;;;;;;17.20;87.30;;;;;;4948829;28;19937;-86
2022/05/02 12:21:31;;;;;;;;;;;17.30;87.40;;;;;;4962792;28;20390;-86
2022/05/02 12:24:02;;;;;;;;;;;17.30;87.50;;;;;;4962214;28;19930;-85
2022/05/02 12:26:33;;;;;;;;;;;17.20;87.60;;;;;;4947599;28;19934;-86
2022/05/02 12:29:11;;;;;;;;;;;17.20;87.50;;;;;;4953908;28;19926;-86
2022/05/02 12:32:00;;;;;;;;;;;17.20;87.90;;;;;;4954538;28;19937;-86
2022/05/02 12:34:38;;;;;;;;;;;17.20;87.40;;;;;;4922529;28;20041;-89
2022/05/02 12:37:32;;;;;;;;;;;17.20;87.70;;;;;;4965849;28;19946;-88
2022/05/02 12:40:04;;;;;;;;;;;17.20;87.50;;;;;;4951752;28;19957;-87
2022/05/02 12:43:04;;;;;;;;;;;17.10;87.60;;;;;;4968162;28;19933;-88
2022/05/02 12:45:41;;;;;;;;;;;17.10;87.20;;;;;;4914803;28;19934;-88
2022/05/02 12:48:15;;;;;;;;;;;17.10;87.60;;;;;;4969643;28;19942;-86
2022/05/02 12:50:46;;;;;;;;;;;17.20;87.70;;;;;;4968863;28;19927;-89
2022/05/02 12:54:09;;;;;;;;;;;17.20;87.10;;;;;;4954472;28;19941;-87
2022/05/02 12:56:07;;;;;;;;;;;17.20;86.30;;;;;;4955528;28;19941;-88
2022/05/02 13:01:23;;;;;;;;;;;17.20;86.90;;;;;;4983667;28;19926;-85
2022/05/02 13:03:57;;;;;;;;;;;17.20;86.30;;;;;;4964947;28;19930;-86
2022/05/02 13:06:39;;;;;;;;;;;17.20;86.90;;;;;;4957876;28;19965;-86
2022/05/02 13:09:14;;;;;;;;;;;17.30;87.00;;;;;;4975003;28;20402;-86
2022/05/02 13:11:46;;;;;;;;;;;17.30;87.00;;;;;;4955667;28;19957;-85
2022/05/02 13:14:21;;;;;;;;;;;17.40;86.70;;;;;;4972405;28;19930;-86
2022/05/02 13:16:51;;;;;;;;;;;17.50;86.60;;;;;;4937464;28;19934;-86
2022/05/02 13:19:31;;;;;;;;;;;17.60;87.00;;;;;;4947827;28;19934;-88
2022/05/02 13:21:59;;;;;;;;;;;17.80;86.30;;;;;;4973555;23;20233;-81
2022/05/02 13:24:28;;;;;;;;;;;17.90;86.10;;;;;;4962589;28;20208;-81
2022/05/02 13:27:02;;;;;;;;;;;18.20;86.50;;;;;;4963363;28;19941;-81
2022/05/02 13:29:49;;;;;;;;;;;18.40;85.40;;;;;;4961551;28;20003;-82
2022/05/02 13:32:23;;;;;;;;;;;18.70;84.40;;;;;;4949731;28;20568;-80
2022/05/02 13:34:51;;;;;;;;;;;19.00;84.50;;;;;;4961554;28;19933;-81
2022/05/02 13:37:41;;;;;;;;;;;19.30;84.80;;;;;;4962781;28;19930;-80
2022/05/02 13:40:11;;;;;;;;;;;19.50;83.80;;;;;;4982808;28;19934;-82
2022/05/02 13:42:50;;;;;;;;;;;19.70;82.00;;;;;;4945778;28;19932;-86
2022/05/02 13:45:25;;;;;;;;;;;18.70;81.10;;;;;;4961775;28;19934;-82
2022/05/02 13:48:08;;;;;;;;;;;20.10;82.40;;;;;;4931744;28;19940;-80
2022/05/02 13:50:41;;;;;;;;;;;20.10;80.90;;;;;;4950954;28;19926;-81
2022/05/02 13:53:34;;;;;;;;;;;20.20;80.90;;;;;;4954685;28;19934;-81
2022/05/02 13:56:15;;;;;;;;;;;20.10;81.00;;;;;;4959639;28;19934;-81
2022/05/02 13:59:18;;;;;;;;;;;20.20;81.50;;;;;;4936407;28;20556;-80
2022/05/02 14:02:14;;;;;;;;;;;20.00;81.00;;;;;;4979524;28;19938;-81
2022/05/02 14:04:58;;;;;;;;;;;20.00;81.70;;;;;;4955431;28;19937;-81
2022/05/02 14:07:35;;;;;;;;;;;20.00;82.10;;;;;;4944948;28;19930;-82
2022/05/02 14:10:04;;;;;;;;;;;20.00;81.80;;;;;;4975808;28;21013;-82
2022/05/02 14:12:34;;;;;;;;;;;20.00;80.30;;;;;;4940741;28;19934;-84
2022/05/02 14:15:18;;;;;;;;;;;20.00;81.40;;;;;;4935067;28;19934;-81
2022/05/02 14:17:53;;;;;;;;;;;20.00;81.60;;;;;;4957340;28;20744;-82
2022/05/02 14:20:24;;;;;;;;;;;20.00;81.40;;;;;;4955496;28;19934;-81
2022/05/02 14:22:59;;;;;;;;;;;20.00;81.20;;;;;;4957058;28;19973;-81
2022/05/02 14:25:29;;;;;;;;;;;20.00;81.20;;;;;;4974327;28;19927;-81
2022/05/02 14:28:01;;;;;;;;;;;19.90;80.00;;;;;;4960437;28;19930;-81
2022/05/02 14:30:35;;;;;;;;;;;19.80;81.00;;;;;;4947073;28;19934;-81
2022/05/02 14:33:04;;;;;;;;;;;19.60;81.60;;;;;;4944874;28;19941;-81
2022/05/02 14:35:40;;;;;;;;;;;19.50;81.40;;;;;;4942666;28;19934;-84
2022/05/02 14:38:14;;;;;;;;;;;19.50;81.50;;;;;;4975057;28;19930;-81
2022/05/02 14:40:46;;;;;;;;;;;19.40;81.80;;;;;;4934023;28;19926;-83
2022/05/02 14:43:17;;;;;;;;;;;19.40;82.20;;;;;;4975649;28;19934;-86
2022/05/02 14:45:46;;;;;;;;;;;19.30;82.20;;;;;;4941929;28;19934;-81
2022/05/02 14:48:15;;;;;;;;;;;19.20;81.60;;;;;;4954923;28;19934;-81
2022/05/02 14:50:47;;;;;;;;;;;19.10;82.30;;;;;;4961039;28;19941;-81
2022/05/02 14:53:21;;;;;;;;;;;19.00;82.10;;;;;;4935627;28;19938;-80
2022/05/02 14:55:54;;;;;;;;;;;18.90;82.10;;;;;;4935844;28;19934;-81
2022/05/02 14:58:26;;;;;;;;;;;18.90;82.50;;;;;;4955937;28;20315;-80
2022/05/02 15:00:58;;;;;;;;;;;19.10;82.40;;;;;;4938748;28;20308;-82
2022/05/02 15:03:31;;;;;;;;;;;19.00;82.20;;;;;;4971394;28;20238;-83
2022/05/02 15:06:07;;;;;;;;;;;18.80;82.60;;;;;;4931197;28;19941;-82
2022/05/02 15:08:41;;;;;;;;;;;18.80;82.30;;;;;;4954595;28;19934;-82
2022/05/02 15:11:19;;;;;;;;;;;18.70;82.80;;;;;;4971592;28;19933;-79
2022/05/02 15:13:59;;;;;;;;;;;18.70;82.70;;;;;;4940866;28;19934;-81
2022/05/02 15:16:47;;;;;;;;;;;18.60;82.80;;;;;;4971824;28;19926;-82
2022/05/02 15:19:36;;;;;;;;;;;18.70;82.40;;;;;;4939078;28;19937;-81
2022/05/02 15:22:11;;;;;;;;;;;18.80;82.50;;;;;;4945613;28;20022;-81
2022/05/02 15:24:45;;;;;;;;;;;19.20;82.40;;;;;;4978287;28;19941;-78